createdAt,value
2022-12-08T00:01:28.506Z,8.27
2022-12-08T00:03:56.356Z,7.30
2022-12-08T00:06:53.635Z,7.72
2022-12-08T00:09:30.011Z,6.75
2022-12-08T00:12:05.114Z,9.05
2022-12-08T00:14:35.652Z,8.57
2022-12-08T00:17:04.239Z,7.72
2022-12-08T00:19:31.567Z,10.15
2022-12-08T00:21:59.652Z,9.15
2022-12-08T00:24:33.155Z,6.80
2022-12-08T00:27:01.845Z,8.27
2022-12-08T00:29:29.167Z,6.38
2022-12-08T00:31:56.461Z,8.32
2022-12-08T00:34:23.730Z,9.18
2022-12-08T00:36:51.001Z,8.50
2022-12-08T00:39:19.444Z,8.15
2022-12-08T00:42:04.850Z,6.30
2022-12-08T00:44:31.980Z,6.30
2022-12-08T00:46:59.018Z,6.63
2022-12-08T00:49:26.141Z,8.07
2022-12-08T00:51:53.413Z,7.25
2022-12-08T00:54:21.061Z,7.05
2022-12-08T00:56:48.335Z,8.30
2022-12-08T00:59:15.948Z,6.30
2022-12-08T01:01:45.460Z,6.22
2022-12-08T01:04:16.172Z,7.45
2022-12-08T01:06:44.431Z,6.80
2022-12-08T01:09:13.334Z,7.20
2022-12-08T01:11:40.558Z,5.30
2022-12-08T01:14:07.606Z,7.05
2022-12-08T01:16:36.389Z,6.70
2022-12-08T01:19:04.671Z,7.35
2022-12-08T01:21:31.871Z,6.78
2022-12-08T01:24:01.109Z,9.98
2022-12-08T01:26:28.153Z,7.72
2022-12-08T01:28:55.378Z,7.82
2022-12-08T01:31:23.068Z,8.30
2022-12-08T01:33:51.034Z,8.25
2022-12-08T01:36:44.631Z,6.57
2022-12-08T01:39:17.778Z,7.80
2022-12-08T01:41:46.350Z,7.97
2022-12-08T01:44:13.628Z,7.00
2022-12-08T01:46:43.823Z,8.60
2022-12-08T01:49:17.670Z,6.10
2022-12-08T01:51:55.705Z,7.53
2022-12-08T01:54:27.902Z,6.85
2022-12-08T01:57:15.932Z,8.90
2022-12-08T01:59:49.485Z,8.40
2022-12-08T02:02:16.840Z,8.95
2022-12-08T02:04:43.978Z,8.02
2022-12-08T02:07:13.747Z,8.02
2022-12-08T02:09:41.742Z,5.97
2022-12-08T02:12:10.148Z,7.55
2022-12-08T02:14:37.449Z,7.00
2022-12-08T02:17:28.276Z,7.97
2022-12-08T02:20:19.520Z,7.25
2022-12-08T02:23:08.130Z,8.05
2022-12-08T02:26:03.071Z,8.90
2022-12-08T02:28:48.075Z,8.48
2022-12-08T02:31:53.143Z,7.78
2022-12-08T02:34:30.072Z,6.03
2022-12-08T02:37:15.419Z,6.25
2022-12-08T02:39:59.450Z,5.35
2022-12-08T02:42:35.459Z,7.45
2022-12-08T02:47:44.268Z,4.07
2022-12-08T02:50:12.777Z,7.07
2022-12-08T02:52:46.064Z,6.47
2022-12-08T02:55:51.222Z,6.13
2022-12-08T02:58:47.783Z,5.95
2022-12-08T03:01:26.894Z,6.82
2022-12-08T03:04:27.479Z,6.63
2022-12-08T03:07:02.242Z,5.65
2022-12-08T03:10:11.152Z,7.25
2022-12-08T03:12:51.707Z,5.60
2022-12-08T03:15:21.369Z,5.78
2022-12-08T03:17:56.717Z,7.35
2022-12-08T03:20:26.135Z,6.78
2022-12-08T03:22:56.682Z,4.75
2022-12-08T03:25:31.950Z,4.50
2022-12-08T03:28:00.425Z,4.72
2022-12-08T03:30:35.165Z,5.28
2022-12-08T03:33:19.440Z,5.93
2022-12-08T03:35:47.316Z,5.32
2022-12-08T03:38:17.207Z,4.05
2022-12-08T03:41:05.361Z,6.80
2022-12-08T03:43:34.922Z,4.78
2022-12-08T03:46:02.737Z,3.88
2022-12-08T03:48:30.152Z,5.97
2022-12-08T03:50:57.211Z,4.80
2022-12-08T03:53:24.293Z,5.35
2022-12-08T03:55:53.530Z,3.38
2022-12-08T03:58:20.507Z,2.95
2022-12-08T04:00:47.559Z,3.40
2022-12-08T04:03:14.859Z,3.33
2022-12-08T04:05:42.007Z,2.38
2022-12-08T04:08:09.086Z,3.38
2022-12-08T04:10:36.212Z,3.13
2022-12-08T04:13:03.475Z,3.17
2022-12-08T04:15:30.479Z,2.33
2022-12-08T04:17:57.471Z,2.47
2022-12-08T04:20:24.564Z,3.40
2022-12-08T04:22:51.563Z,3.45
2022-12-08T04:25:18.612Z,3.63
2022-12-08T04:27:45.737Z,6.03
2022-12-08T04:30:13.132Z,4.32
2022-12-08T04:32:44.320Z,5.10
2022-12-08T04:35:14.589Z,4.82
2022-12-08T04:37:43.268Z,6.07
2022-12-08T04:40:12.322Z,6.10
2022-12-08T04:42:39.500Z,7.25
2022-12-08T04:45:07.333Z,6.70
2022-12-08T04:47:34.832Z,5.25
2022-12-08T04:50:02.348Z,7.72
2022-12-08T04:52:29.646Z,5.88
2022-12-08T04:54:56.826Z,7.32
2022-12-08T04:57:24.003Z,7.40
2022-12-08T04:59:51.137Z,8.38
2022-12-08T05:02:18.439Z,9.00
2022-12-08T05:04:45.662Z,6.22
2022-12-08T05:07:12.697Z,6.40
2022-12-08T05:09:39.949Z,11.45
2022-12-08T05:12:07.307Z,5.78
2022-12-08T05:14:34.349Z,6.43
2022-12-08T05:17:06.217Z,6.00
2022-12-08T05:19:36.572Z,5.43
2022-12-08T05:22:03.653Z,4.80
2022-12-08T05:24:30.883Z,8.75
2022-12-08T05:26:58.190Z,4.97
2022-12-08T05:29:25.277Z,7.18
2022-12-08T05:31:52.295Z,5.75
2022-12-08T05:34:19.431Z,5.65
2022-12-08T05:36:46.529Z,5.22
2022-12-08T05:39:14.851Z,5.18
2022-12-08T05:41:42.330Z,5.15
2022-12-08T05:44:09.385Z,4.93
2022-12-08T05:46:36.795Z,4.72
2022-12-08T05:49:04.663Z,4.13
2022-12-08T05:51:31.867Z,8.70
2022-12-08T05:53:59.113Z,20.27
2022-12-08T05:56:26.316Z,7.10
2022-12-08T05:58:53.419Z,8.60
2022-12-08T06:01:30.756Z,4.68
2022-12-08T06:04:03.497Z,5.15
2022-12-08T06:06:31.970Z,7.55
2022-12-08T06:08:59.345Z,5.28
2022-12-08T06:11:29.640Z,4.88
2022-12-08T06:13:57.727Z,7.15
2022-12-08T06:16:26.927Z,5.93
2022-12-08T06:18:54.884Z,4.57
2022-12-08T06:21:21.999Z,4.32
2022-12-08T06:23:52.097Z,4.78
2022-12-08T06:26:19.709Z,3.97
2022-12-08T06:28:46.951Z,5.32
2022-12-08T06:31:18.962Z,6.07
2022-12-08T06:33:47.146Z,5.95
2022-12-08T06:36:16.584Z,4.82
2022-12-08T06:38:44.212Z,6.13
2022-12-08T06:41:13.083Z,5.93
2022-12-08T06:43:41.233Z,9.15
2022-12-08T06:46:14.665Z,6.00
2022-12-08T06:48:41.843Z,7.55
2022-12-08T06:51:15.177Z,6.43
2022-12-08T06:53:43.570Z,4.00
2022-12-08T06:56:11.858Z,5.47
2022-12-08T06:58:39.375Z,6.38
2022-12-08T07:01:13.475Z,5.65
2022-12-08T07:03:41.669Z,5.85
2022-12-08T07:06:14.899Z,4.57
2022-12-08T07:08:42.150Z,5.30
2022-12-08T07:11:18.005Z,5.65
2022-12-08T07:13:48.184Z,6.10
2022-12-08T07:16:15.278Z,4.90
2022-12-08T07:18:43.033Z,5.18
2022-12-08T07:21:13.169Z,4.68
2022-12-08T07:23:40.592Z,5.00
2022-12-08T07:26:11.615Z,5.32
2022-12-08T07:28:41.629Z,5.88
2022-12-08T07:31:21.008Z,6.28
2022-12-08T07:33:48.878Z,5.05
2022-12-08T07:36:16.391Z,4.05
2022-12-08T07:38:44.427Z,5.80
2022-12-08T07:41:23.300Z,4.25
2022-12-08T07:43:51.902Z,4.13
2022-12-08T07:46:21.791Z,5.18
2022-12-08T07:48:48.889Z,6.82
2022-12-08T07:51:17.023Z,5.28
2022-12-08T07:53:53.231Z,5.45
2022-12-08T07:56:21.793Z,4.05
2022-12-08T07:58:49.171Z,6.50
2022-12-08T08:01:29.182Z,7.50
2022-12-08T08:04:01.437Z,5.30
2022-12-08T08:06:28.880Z,6.90
2022-12-08T08:08:56.034Z,7.75
2022-12-08T08:11:23.617Z,7.75
2022-12-08T08:13:51.685Z,7.97
2022-12-08T08:16:20.399Z,8.38
2022-12-08T08:18:49.586Z,7.72
2022-12-08T08:24:05.660Z,7.28
2022-12-08T08:26:32.942Z,8.73
2022-12-08T08:28:59.972Z,7.70
2022-12-08T08:31:27.323Z,7.63
2022-12-08T08:33:56.462Z,9.40
2022-12-08T08:36:23.494Z,4.93
2022-12-08T08:38:51.169Z,5.65
2022-12-08T08:41:18.185Z,7.00
2022-12-08T08:43:45.268Z,5.32
2022-12-08T08:46:12.617Z,8.25
2022-12-08T08:48:39.725Z,7.30
2022-12-08T08:51:12.772Z,6.53
2022-12-08T08:53:40.169Z,6.30
2022-12-08T08:56:15.888Z,5.32
2022-12-08T08:58:42.949Z,4.53
2022-12-08T09:01:21.147Z,6.43
2022-12-08T09:03:49.069Z,7.85
2022-12-08T09:06:17.187Z,5.97
2022-12-08T09:08:45.159Z,7.80
2022-12-08T09:11:12.617Z,5.78
2022-12-08T09:13:39.718Z,6.35
2022-12-08T09:16:08.852Z,5.72
2022-12-08T09:18:36.031Z,4.28
2022-12-08T09:21:15.096Z,7.65
2022-12-08T09:23:43.042Z,4.70
2022-12-08T09:26:10.200Z,7.97
2022-12-08T09:28:38.267Z,6.05
2022-12-08T09:31:05.667Z,5.47
2022-12-08T09:33:33.826Z,3.30
2022-12-08T09:36:05.202Z,5.22
2022-12-08T09:38:32.552Z,6.30
2022-12-08T09:41:02.411Z,4.82
2022-12-08T09:43:55.746Z,5.15
2022-12-08T09:46:23.446Z,7.93
2022-12-08T09:48:56.205Z,5.65
2022-12-08T09:51:32.007Z,4.93
2022-12-08T09:54:11.954Z,4.85
2022-12-08T09:56:39.816Z,6.30
2022-12-08T09:59:28.222Z,7.50
2022-12-08T10:01:55.583Z,5.60
2022-12-08T10:04:34.083Z,6.78
2022-12-08T10:07:18.060Z,6.03
2022-12-08T10:10:36.425Z,5.32
2022-12-08T10:13:50.551Z,8.70
2022-12-08T10:16:34.865Z,8.25
2022-12-08T10:19:17.793Z,4.70
2022-12-08T10:21:45.614Z,8.38
2022-12-08T10:24:26.255Z,8.15
2022-12-08T10:26:56.005Z,9.55
2022-12-08T10:29:23.130Z,8.10
2022-12-08T10:31:50.544Z,5.55
2022-12-08T10:34:24.272Z,7.00
2022-12-08T10:36:58.043Z,6.97
2022-12-08T10:39:43.800Z,7.65
2022-12-08T10:42:13.838Z,4.57
2022-12-08T10:45:09.198Z,6.07
2022-12-08T10:47:44.650Z,5.55
2022-12-08T10:53:09.755Z,7.70
2022-12-08T10:55:50.614Z,6.68
2022-12-08T10:58:33.891Z,6.03
2022-12-08T11:01:25.861Z,7.32
2022-12-08T11:03:58.813Z,8.38
2022-12-08T11:06:28.944Z,6.13
2022-12-08T11:08:59.676Z,8.65
2022-12-08T11:11:52.221Z,7.10
2022-12-08T11:14:24.930Z,7.60
2022-12-08T11:16:56.388Z,6.65
2022-12-08T11:19:29.761Z,5.63
2022-12-08T11:21:56.875Z,8.18
2022-12-08T11:24:31.195Z,6.40
2022-12-08T11:27:06.435Z,7.57
2022-12-08T11:29:35.546Z,6.13
2022-12-08T11:32:11.985Z,7.70
2022-12-08T11:34:55.832Z,7.38
2022-12-08T11:37:42.256Z,7.63
2022-12-08T11:43:22.416Z,8.48
2022-12-08T11:46:03.143Z,7.45
2022-12-08T11:48:42.170Z,12.35
2022-12-08T11:51:17.394Z,6.78
2022-12-08T11:53:50.072Z,7.45
2022-12-08T11:56:33.971Z,6.28
2022-12-08T11:59:28.032Z,9.70
2022-12-08T12:01:55.242Z,7.00
2022-12-08T12:04:29.467Z,8.32
2022-12-08T12:07:02.242Z,8.13
2022-12-08T12:09:53.287Z,6.65
2022-12-08T12:12:48.980Z,6.40
2022-12-08T12:15:55.601Z,6.75
2022-12-08T12:18:47.657Z,10.32
2022-12-08T12:21:45.640Z,5.72
2022-12-08T12:24:26.034Z,8.90
2022-12-08T12:27:22.860Z,8.18
2022-12-08T12:30:00.421Z,5.57
2022-12-08T12:32:44.922Z,3.90
2022-12-08T12:35:36.557Z,8.70
2022-12-08T12:38:39.207Z,5.30
2022-12-08T12:41:08.416Z,5.78
2022-12-08T12:43:38.520Z,6.43
2022-12-08T12:46:23.963Z,5.43
2022-12-08T12:48:52.285Z,7.70
2022-12-08T12:51:38.057Z,5.80
2022-12-08T12:54:26.778Z,4.90
2022-12-08T12:56:57.374Z,5.57
2022-12-08T12:59:53.249Z,8.45
2022-12-08T13:02:25.150Z,6.57
2022-12-08T13:05:09.737Z,5.68
2022-12-08T13:07:51.099Z,6.47
2022-12-08T13:10:30.129Z,6.15
2022-12-08T13:13:16.428Z,9.00
2022-12-08T13:15:46.797Z,7.00
2022-12-08T13:18:32.427Z,6.63
2022-12-08T13:21:11.046Z,5.97
2022-12-08T13:23:38.030Z,8.90
2022-12-08T13:26:26.284Z,7.78
2022-12-08T13:28:59.397Z,10.35
2022-12-08T13:31:50.118Z,6.78
2022-12-08T13:34:29.660Z,7.88
2022-12-08T13:37:15.857Z,7.78
2022-12-08T13:40:02.510Z,8.68
2022-12-08T13:42:48.471Z,5.95
2022-12-08T13:45:48.707Z,5.85
2022-12-08T13:49:32.829Z,5.78
2022-12-08T13:57:36.046Z,7.10
2022-12-08T14:00:19.387Z,6.82
2022-12-08T14:02:53.116Z,10.55
2022-12-08T14:05:35.233Z,4.78
2022-12-08T14:11:33.706Z,9.05
2022-12-08T14:14:09.948Z,13.05
2022-12-08T14:16:41.206Z,11.30
2022-12-08T14:19:24.669Z,11.07
2022-12-08T14:22:12.029Z,14.18
2022-12-08T14:24:40.995Z,12.27
2022-12-08T14:27:13.976Z,11.70
2022-12-08T14:29:54.174Z,11.70
2022-12-08T14:32:30.184Z,11.15
2022-12-08T14:37:42.599Z,7.05
2022-12-08T14:40:23.221Z,7.78
2022-12-08T14:43:04.364Z,25.13
2022-12-08T14:45:34.985Z,12.93
2022-12-08T14:48:27.789Z,19.90
2022-12-08T14:51:18.287Z,14.88
2022-12-08T14:54:06.615Z,11.88
2022-12-08T14:57:07.898Z,8.60
2022-12-08T14:59:38.263Z,9.65
2022-12-08T15:02:24.243Z,11.75
2022-12-08T15:05:17.644Z,8.70
2022-12-08T15:07:53.031Z,7.07
2022-12-08T15:10:26.681Z,6.70
2022-12-08T15:13:12.397Z,5.80
2022-12-08T15:15:55.351Z,8.35
2022-12-08T15:18:31.890Z,9.38
2022-12-08T15:21:05.907Z,9.63
2022-12-08T15:23:44.705Z,9.77
2022-12-08T15:26:24.711Z,25.50
2022-12-08T15:28:51.977Z,21.98
2022-12-08T15:31:19.425Z,21.60
2022-12-08T15:33:46.825Z,30.33
2022-12-08T15:36:13.930Z,33.50
2022-12-08T15:38:40.966Z,22.00
2022-12-08T15:41:13.010Z,21.08
2022-12-08T15:43:41.874Z,11.82
2022-12-08T15:46:09.033Z,20.13
2022-12-08T15:48:37.867Z,12.13
2022-12-08T15:51:05.081Z,14.50
2022-12-08T15:53:32.545Z,9.25
2022-12-08T15:56:26.946Z,13.73
2022-12-08T15:58:54.101Z,7.75
2022-12-08T16:01:23.240Z,9.55
2022-12-08T16:07:19.605Z,7.95
2022-12-08T16:09:41.128Z,7.72
2022-12-08T16:18:23.848Z,7.95
2022-12-08T16:23:45.787Z,12.45
2022-12-08T16:29:07.630Z,9.65
2022-12-08T16:31:34.888Z,10.50
2022-12-08T16:34:02.143Z,9.90
2022-12-08T16:36:29.314Z,10.38
2022-12-08T16:38:56.442Z,10.50
2022-12-08T16:41:42.292Z,8.85
2022-12-08T16:46:37.219Z,7.80
2022-12-08T16:49:08.520Z,5.97
2022-12-08T16:51:35.804Z,9.38
2022-12-08T16:54:03.002Z,7.18
2022-12-08T16:56:33.188Z,7.80
2022-12-08T16:59:02.308Z,10.00
2022-12-08T17:01:29.919Z,8.63
2022-12-08T17:04:29.147Z,9.32
2022-12-08T17:06:44.089Z,8.73
2022-12-08T17:09:11.088Z,9.05
2022-12-08T17:11:43.070Z,9.93
2022-12-08T17:14:13.006Z,9.82
2022-12-08T17:16:40.410Z,9.27
2022-12-08T17:19:07.751Z,8.35
2022-12-08T17:21:34.968Z,10.10
2022-12-08T17:24:02.072Z,9.13
2022-12-08T17:26:29.119Z,10.15
2022-12-08T17:29:01.046Z,9.07
2022-12-08T17:31:31.021Z,13.13
2022-12-08T17:34:10.979Z,10.50
2022-12-08T17:36:38.436Z,12.77
2022-12-08T17:39:12.012Z,14.00
2022-12-08T17:41:42.495Z,11.25
2022-12-08T17:44:16.248Z,10.75
2022-12-08T17:46:50.520Z,10.60
2022-12-08T17:49:24.589Z,11.43
2022-12-08T17:51:54.817Z,10.90
2022-12-08T17:54:22.648Z,11.75
2022-12-08T17:56:49.773Z,9.48
2022-12-08T17:59:17.119Z,13.93
2022-12-08T18:01:44.430Z,11.77
2022-12-08T18:04:12.940Z,10.82
2022-12-08T18:06:40.598Z,11.48
2022-12-08T18:09:08.750Z,12.43
2022-12-08T18:11:36.794Z,11.23
2022-12-08T18:14:09.784Z,11.55
2022-12-08T18:16:47.511Z,12.68
2022-12-08T18:19:15.867Z,13.25
2022-12-08T18:21:43.669Z,11.52
2022-12-08T18:24:22.207Z,10.90
2022-12-08T18:26:52.086Z,11.25
2022-12-08T18:29:21.445Z,13.27
2022-12-08T18:31:48.882Z,15.60
2022-12-08T18:34:18.957Z,14.45
2022-12-08T18:36:46.696Z,16.98
2022-12-08T18:39:29.938Z,14.30
2022-12-08T18:41:59.404Z,14.23
2022-12-08T18:44:26.862Z,17.00
2022-12-08T18:46:54.077Z,14.55
2022-12-08T18:49:21.222Z,16.60
2022-12-08T18:51:48.678Z,16.48
2022-12-08T18:54:15.941Z,14.70
2022-12-08T18:56:44.451Z,13.20
2022-12-08T18:59:13.876Z,14.77
2022-12-08T19:01:41.173Z,13.65
2022-12-08T19:04:27.906Z,13.85
2022-12-08T19:06:56.483Z,13.27
2022-12-08T19:09:25.999Z,14.25
2022-12-08T19:11:53.283Z,14.57
2022-12-08T19:14:25.903Z,15.07
2022-12-08T19:16:55.147Z,14.43
2022-12-08T19:19:22.235Z,14.75
2022-12-08T19:21:49.692Z,12.93
2022-12-08T19:24:17.259Z,13.10
2022-12-08T19:26:44.795Z,13.50
2022-12-08T19:29:12.197Z,15.05
2022-12-08T19:31:40.512Z,13.32
2022-12-08T19:34:09.262Z,13.30
2022-12-08T19:36:42.127Z,13.38
2022-12-08T19:39:37.452Z,13.80
2022-12-08T19:42:32.175Z,12.88
2022-12-08T19:45:10.121Z,13.98
2022-12-08T19:47:38.410Z,13.82
2022-12-08T19:50:25.561Z,13.95
2022-12-08T19:52:52.991Z,14.73
2022-12-08T19:55:24.680Z,15.02
2022-12-08T19:57:58.302Z,19.58
2022-12-08T20:00:25.997Z,15.55
2022-12-08T20:02:53.239Z,15.60
2022-12-08T20:05:20.515Z,16.40
2022-12-08T20:07:47.770Z,17.90
2022-12-08T20:10:19.839Z,16.58
2022-12-08T20:12:47.153Z,17.70
2022-12-08T20:15:14.967Z,16.42
2022-12-08T20:17:42.627Z,16.23
2022-12-08T20:20:11.926Z,17.23
2022-12-08T20:22:39.383Z,18.13
2022-12-08T20:25:07.529Z,16.88
2022-12-08T20:27:34.783Z,16.17
2022-12-08T20:30:02.107Z,16.63
2022-12-08T20:32:29.199Z,16.85
2022-12-08T20:34:56.265Z,17.55
2022-12-08T20:37:23.494Z,16.33
2022-12-08T20:39:52.303Z,17.33
2022-12-08T20:42:20.189Z,17.92
2022-12-08T20:44:47.370Z,19.02
2022-12-08T20:47:14.471Z,18.00
2022-12-08T20:49:41.812Z,16.85
2022-12-08T20:52:09.461Z,18.45
2022-12-08T20:54:37.684Z,18.23
2022-12-08T20:57:05.494Z,18.48
2022-12-08T20:59:32.892Z,18.27
2022-12-08T21:02:00.681Z,17.70
2022-12-08T21:04:28.297Z,17.65
2022-12-08T21:06:55.714Z,18.48
2022-12-08T21:09:23.056Z,19.10
2022-12-08T21:11:50.409Z,17.98
2022-12-08T21:14:17.661Z,19.50
2022-12-08T21:16:45.015Z,18.23
2022-12-08T21:19:12.527Z,18.75
2022-12-08T21:21:39.662Z,18.23
2022-12-08T21:24:07.811Z,17.77
2022-12-08T21:26:35.452Z,18.98
2022-12-08T21:29:02.600Z,19.52
2022-12-08T21:31:31.988Z,19.42
2022-12-08T21:34:01.235Z,19.88
2022-12-08T21:36:30.223Z,21.67
2022-12-08T21:39:02.873Z,20.90
2022-12-08T21:41:49.349Z,21.20
2022-12-08T21:44:20.552Z,22.45
2022-12-08T21:46:48.023Z,22.70
2022-12-08T21:49:16.360Z,21.17
2022-12-08T21:51:43.781Z,21.65
2022-12-08T21:54:18.722Z,18.45
2022-12-08T21:56:48.035Z,16.52
2022-12-08T21:59:16.711Z,21.05
2022-12-08T22:01:44.051Z,16.88
2022-12-08T22:04:12.716Z,16.60
2022-12-08T22:06:40.067Z,18.80
2022-12-08T22:09:09.869Z,17.92
2022-12-08T22:11:37.654Z,21.52
2022-12-08T22:14:08.238Z,17.77
2022-12-08T22:16:38.478Z,19.17
2022-12-08T22:19:05.710Z,18.17
2022-12-08T22:21:32.870Z,18.33
2022-12-08T22:24:01.015Z,18.42
2022-12-08T22:26:28.208Z,17.50
2022-12-08T22:28:55.420Z,18.08
2022-12-08T22:31:22.873Z,17.35
2022-12-08T22:33:51.155Z,17.83
2022-12-08T22:36:21.975Z,18.63
2022-12-08T22:38:50.170Z,16.35
2022-12-08T22:41:18.268Z,16.95
2022-12-08T22:43:46.385Z,17.52
2022-12-08T22:46:18.775Z,16.08
2022-12-08T22:48:46.528Z,15.40
2022-12-08T22:51:15.130Z,16.92
2022-12-08T22:53:42.679Z,16.80
2022-12-08T22:56:12.235Z,16.08
2022-12-08T22:58:41.435Z,17.23
2022-12-08T23:01:09.004Z,17.80
2022-12-08T23:03:36.336Z,17.85
2022-12-08T23:06:12.329Z,19.08
2022-12-08T23:11:07.311Z,18.08
2022-12-08T23:13:34.603Z,18.20
2022-12-08T23:16:01.900Z,19.00
2022-12-08T23:18:29.339Z,17.23
2022-12-08T23:20:56.676Z,18.23
2022-12-08T23:23:23.923Z,18.42
2022-12-08T23:25:53.826Z,18.40
2022-12-08T23:28:21.061Z,16.77
2022-12-08T23:30:48.089Z,16.88
2022-12-08T23:33:15.726Z,17.73
2022-12-08T23:35:42.916Z,17.95
2022-12-08T23:38:09.925Z,17.98
2022-12-08T23:40:36.923Z,20.15
2022-12-08T23:43:06.173Z,19.58
2022-12-08T23:45:33.549Z,21.80
2022-12-08T23:48:00.820Z,20.38
2022-12-08T23:50:28.022Z,22.25
2022-12-08T23:52:55.112Z,21.15
2022-12-08T23:55:22.566Z,20.98
2022-12-08T23:57:49.715Z,19.73
